Startpagina
METAR-TAF:

METAR-TAF

Vliegvelden :

Maastricht Aachen Airport

Maastricht Aken, Nederland

breedte: 50-55N, lengte: 005-47E, hoogte: 114 m

Actueel weer

Dit bericht is 35 minuten geleden gemaakt, om 08:25 UTC
Wind 9 kt uit het zuiden
Temperatuur 8°C
Vochtigheid 71%
Druk 1021 hPa
Zicht 10 km of meer
Verspreide wolken op 4500 ft
motregen

METAR: EHBK 270825Z AUTO 19009KT 9999 DZ SCT045 08/03 Q1021 NOSIG

Tijdstip: 10:00 (09:00 UTC)

Verwachting

Dit bericht is 3 uur en het 45 minuten geleden gemaakt, om 05:15 UTC
Verwachting geldig van 27 om 06 UTC tot 28 om 12 UTC
Wind 9 kt uit het zuiden
Zicht 10 km of meer
geen wolken onder 1500 m en geen cumulonimbus
Kans 30% :
Tijdelijke
van 27 om 17 UTC tot 27 om 24 UTC
Zicht: 7000 m
regen

TAF: EHBK 270515Z 2706/2812 18009KT CAVOK PROB30 TEMPO 2717/2724 7000 RA

Waarnemingen en weersverwachtingen van meer dan 4000 vliegvelden (METAR en TAF).

De beschikbare stations zijn de gele en rode punten op de kaart.

Ga met uw muis naar het station om de naam te zien.

Klik dan om waarnemingen en weersverwachtingen te zien.

kaart wijzigen: klik op de groene knoppen met een zwart kruis om in te zoomen, op de groene knop met een streepje om uit te zoomen of op de groene pijlen voor aangrenzende kaarten.


METAR-TAF: